createdAt,value
2023-04-26T00:00:36.602Z,99.90
2023-04-26T00:03:11.178Z,99.90
2023-04-26T00:05:39.054Z,99.90
2023-04-26T00:08:10.617Z,99.90
2023-04-26T00:10:44.707Z,99.90
2023-04-26T00:13:13.578Z,99.90
2023-04-26T00:15:42.978Z,99.90
2023-04-26T00:18:12.784Z,99.90
2023-04-26T00:20:39.925Z,99.90
2023-04-26T00:23:09.384Z,99.90
2023-04-26T00:25:40.393Z,99.90
2023-04-26T00:28:11.288Z,99.90
2023-04-26T00:30:47.488Z,99.90
2023-04-26T00:33:16.173Z,99.90
2023-04-26T00:35:46.816Z,99.90
2023-04-26T00:38:15.223Z,99.90
2023-04-26T00:40:43.680Z,99.90
2023-04-26T00:43:12.004Z,99.90
2023-04-26T00:45:41.446Z,99.90
2023-04-26T00:48:08.702Z,99.90
2023-04-26T00:50:37.316Z,99.90
2023-04-26T00:53:07.748Z,99.90
2023-04-26T00:55:35.486Z,99.90
2023-04-26T00:58:07.577Z,99.90
2023-04-26T01:00:36.609Z,99.90
2023-04-26T01:03:05.879Z,99.90
2023-04-26T01:05:33.290Z,99.90
2023-04-26T01:08:02.565Z,99.90
2023-04-26T01:10:35.290Z,99.90
2023-04-26T01:13:04.154Z,99.90
2023-04-26T01:15:33.994Z,99.90
2023-04-26T01:18:04.352Z,99.90
2023-04-26T01:20:36.759Z,99.90
2023-04-26T01:23:05.282Z,99.90
2023-04-26T01:25:36.529Z,99.90
2023-04-26T01:28:06.239Z,99.90
2023-04-26T01:30:37.597Z,99.90
2023-04-26T01:33:05.994Z,99.90
2023-04-26T01:35:37.157Z,99.90
2023-04-26T01:38:05.788Z,99.90
2023-04-26T01:40:34.355Z,99.90
2023-04-26T01:43:03.836Z,99.90
2023-04-26T01:45:32.161Z,99.90
2023-04-26T01:48:19.354Z,99.90
2023-04-26T01:50:50.198Z,99.90
2023-04-26T01:53:17.615Z,99.90
2023-04-26T01:55:46.057Z,99.90
2023-04-26T01:58:14.363Z,99.90
2023-04-26T02:00:41.660Z,99.90
2023-04-26T02:03:12.641Z,99.90
2023-04-26T02:05:39.876Z,99.90
2023-04-26T02:08:10.089Z,99.90
2023-04-26T02:10:38.490Z,99.90
2023-04-26T02:13:10.615Z,99.90
2023-04-26T02:15:47.816Z,99.90
2023-04-26T02:18:25.011Z,99.90
2023-04-26T02:20:53.257Z,99.90
2023-04-26T02:23:22.631Z,99.90
2023-04-26T02:25:52.762Z,99.90
2023-04-26T02:28:22.885Z,99.90
2023-04-26T02:30:51.296Z,99.90
2023-04-26T02:33:19.471Z,99.90
2023-04-26T02:35:50.611Z,99.90
2023-04-26T02:38:18.473Z,99.90
2023-04-26T02:40:50.151Z,99.90
2023-04-26T02:43:19.560Z,99.90
2023-04-26T02:45:48.248Z,99.90
2023-04-26T02:48:16.605Z,99.90
2023-04-26T02:50:44.065Z,99.90
2023-04-26T02:53:14.496Z,99.90
2023-04-26T02:55:44.756Z,99.90
2023-04-26T02:58:16.203Z,99.90
2023-04-26T03:00:51.511Z,99.90
2023-04-26T03:03:20.697Z,99.90
2023-04-26T03:05:48.133Z,99.90
2023-04-26T03:08:16.564Z,99.90
2023-04-26T03:10:46.311Z,99.90
2023-04-26T03:13:15.611Z,99.90
2023-04-26T03:15:46.909Z,99.90
2023-04-26T03:18:16.360Z,99.90
2023-04-26T03:20:46.158Z,99.90
2023-04-26T03:23:15.485Z,99.90
2023-04-26T03:25:47.952Z,99.90
2023-04-26T03:28:16.577Z,99.90
2023-04-26T03:30:47.260Z,99.90
2023-04-26T03:33:17.018Z,99.90
2023-04-26T03:35:45.566Z,99.90
2023-04-26T03:38:14.988Z,99.90
2023-04-26T03:40:43.137Z,99.90
2023-04-26T03:43:12.455Z,99.90
2023-04-26T03:45:40.654Z,99.90
2023-04-26T03:48:08.506Z,99.90
2023-04-26T03:50:37.521Z,99.90
2023-04-26T03:53:04.831Z,99.90
2023-04-26T03:55:32.268Z,99.90
2023-04-26T03:57:59.553Z,99.90
2023-04-26T04:00:29.257Z,99.90
2023-04-26T04:02:56.628Z,99.90
2023-04-26T04:05:25.412Z,99.90
2023-04-26T04:07:56.869Z,99.90
2023-04-26T04:10:24.479Z,99.90
2023-04-26T04:12:53.606Z,99.90
2023-04-26T04:15:23.843Z,99.90
2023-04-26T04:17:53.595Z,99.90
2023-04-26T04:20:23.661Z,99.90
2023-04-26T04:22:54.440Z,99.90
2023-04-26T04:25:27.610Z,99.90
2023-04-26T04:28:02.410Z,99.90
2023-04-26T04:30:31.465Z,99.90
2023-04-26T04:33:05.699Z,99.90
2023-04-26T04:35:38.877Z,99.90
2023-04-26T04:38:08.938Z,99.90
2023-04-26T04:40:38.199Z,99.90
2023-04-26T04:43:07.338Z,99.90
2023-04-26T04:45:59.786Z,99.90
2023-04-26T04:48:27.606Z,99.90
2023-04-26T04:50:58.749Z,99.90
2023-04-26T04:53:26.496Z,99.90
2023-04-26T04:55:54.069Z,99.90
2023-04-26T04:58:23.074Z,99.90
2023-04-26T05:00:56.948Z,99.90
2023-04-26T05:03:32.222Z,99.90
2023-04-26T05:06:01.266Z,99.90
2023-04-26T05:08:29.483Z,99.90
2023-04-26T05:11:01.567Z,99.90
2023-04-26T05:13:32.308Z,99.90
2023-04-26T05:16:04.205Z,99.90
2023-04-26T05:18:31.837Z,99.90
2023-04-26T05:21:01.920Z,99.90
2023-04-26T05:23:31.949Z,99.90
2023-04-26T05:26:08.228Z,99.90
2023-04-26T05:29:15.451Z,99.90
2023-04-26T05:32:02.591Z,99.90
2023-04-26T05:34:43.396Z,99.90
2023-04-26T05:37:15.587Z,99.90
2023-04-26T05:39:48.031Z,99.90
2023-04-26T05:42:18.005Z,99.90
2023-04-26T05:44:46.517Z,99.90
2023-04-26T05:47:14.965Z,99.90
2023-04-26T05:49:43.591Z,99.90
2023-04-26T05:52:12.600Z,99.90
2023-04-26T05:54:39.733Z,99.90
2023-04-26T05:57:12.434Z,99.90
2023-04-26T05:59:50.243Z,99.90
2023-04-26T06:02:18.716Z,99.90
2023-04-26T06:04:48.459Z,99.90
2023-04-26T06:07:20.964Z,99.90
2023-04-26T06:09:50.982Z,99.90
2023-04-26T06:12:18.418Z,99.90
2023-04-26T06:15:38.748Z,99.90
2023-04-26T06:18:13.714Z,99.90
2023-04-26T06:21:01.389Z,99.90
2023-04-26T06:23:31.451Z,99.90
2023-04-26T06:26:01.912Z,99.90
2023-04-26T06:28:31.134Z,99.90
2023-04-26T06:30:58.985Z,99.90
2023-04-26T06:33:26.929Z,99.90
2023-04-26T06:35:54.322Z,99.90
2023-04-26T06:38:25.612Z,99.90
2023-04-26T06:40:53.161Z,99.90
2023-04-26T06:43:21.745Z,99.90
2023-04-26T06:46:08.989Z,99.90
2023-04-26T06:48:36.448Z,99.90
2023-04-26T06:51:10.915Z,99.90
2023-04-26T06:53:39.068Z,99.90
2023-04-26T06:56:08.587Z,99.90
2023-04-26T06:58:38.145Z,99.90
2023-04-26T07:01:09.216Z,99.90
2023-04-26T07:03:36.859Z,99.90
2023-04-26T07:06:07.566Z,99.90
2023-04-26T07:11:19.503Z,99.90
2023-04-26T07:13:48.373Z,99.90
2023-04-26T07:16:17.226Z,99.90
2023-04-26T07:18:48.832Z,99.90
2023-04-26T07:21:17.247Z,99.90
2023-04-26T07:26:26.738Z,99.90
2023-04-26T07:28:55.222Z,99.90
2023-04-26T07:31:31.853Z,99.90
2023-04-26T07:33:59.805Z,99.90
2023-04-26T07:39:25.147Z,99.90
2023-04-26T07:44:39.343Z,99.90
2023-04-26T07:47:14.148Z,99.90
2023-04-26T07:49:47.909Z,99.90
2023-04-26T07:52:15.924Z,99.90
2023-04-26T07:54:50.513Z,99.90
2023-04-26T07:57:18.139Z,99.90
2023-04-26T07:59:51.239Z,99.90
2023-04-26T08:02:27.083Z,99.90
2023-04-26T08:04:58.095Z,99.90
2023-04-26T08:07:26.496Z,99.90
2023-04-26T08:40:28.000Z,99.90
2023-04-26T08:42:58.417Z,99.90
2023-04-26T08:45:26.691Z,99.90
2023-04-26T08:47:59.184Z,99.90
2023-04-26T08:50:27.425Z,99.90
2023-04-26T08:52:58.473Z,99.90
2023-04-26T08:55:27.836Z,99.90
2023-04-26T09:00:47.088Z,99.90
2023-04-26T09:06:03.176Z,99.90
2023-04-26T09:08:37.748Z,99.90
2023-04-26T09:11:09.092Z,99.90
2023-04-26T09:13:41.109Z,99.90
2023-04-26T09:16:13.127Z,99.90
2023-04-26T09:18:54.667Z,99.90
2023-04-26T09:21:22.098Z,99.90
2023-04-26T09:24:06.247Z,99.90
2023-04-26T09:26:34.861Z,99.90
2023-04-26T09:29:21.277Z,99.90
2023-04-26T09:31:51.631Z,99.90
2023-04-26T09:34:45.114Z,99.90
2023-04-26T09:37:15.783Z,99.90
2023-04-26T09:39:44.099Z,99.90
2023-04-26T09:42:11.956Z,99.90
2023-04-26T09:45:06.137Z,99.90
2023-04-26T09:47:34.243Z,99.90
2023-04-26T09:50:01.420Z,99.90
2023-04-26T09:52:31.829Z,99.90
2023-04-26T09:54:59.120Z,99.90
2023-04-26T09:57:26.570Z,99.90
2023-04-26T09:59:56.750Z,99.90
2023-04-26T10:02:26.760Z,99.90
2023-04-26T10:05:00.336Z,99.90
2023-04-26T10:07:27.880Z,99.90
2023-04-26T10:09:58.079Z,99.90
2023-04-26T10:12:26.046Z,99.90
2023-04-26T10:14:57.790Z,99.90
2023-04-26T10:17:26.243Z,99.90
2023-04-26T10:19:59.224Z,99.90
2023-04-26T10:22:32.000Z,99.90
2023-04-26T10:25:00.606Z,99.90
2023-04-26T10:27:47.432Z,99.90
2023-04-26T10:30:16.885Z,99.90
2023-04-26T10:32:53.578Z,99.90
2023-04-26T10:35:23.149Z,99.90
2023-04-26T10:38:01.198Z,99.90
2023-04-26T10:40:38.959Z,99.90
2023-04-26T10:43:14.631Z,99.90
2023-04-26T10:45:49.224Z,99.90
2023-04-26T10:48:28.810Z,99.90
2023-04-26T10:51:02.419Z,99.90
2023-04-26T10:53:55.361Z,99.90
2023-04-26T10:56:24.047Z,99.90
2023-04-26T10:59:28.487Z,99.90
2023-04-26T11:02:02.322Z,99.90
2023-04-26T11:05:05.247Z,99.90
2023-04-26T11:07:44.209Z,99.90
2023-04-26T11:10:23.508Z,99.90
2023-04-26T11:13:06.906Z,99.90
2023-04-26T11:15:36.338Z,99.90
2023-04-26T11:18:35.213Z,99.90
2023-04-26T11:22:02.983Z,99.90
2023-04-26T11:24:39.261Z,98.60
2023-04-26T11:27:16.182Z,97.90
2023-04-26T11:30:11.839Z,96.10
2023-04-26T11:32:51.326Z,94.90
2023-04-26T11:36:15.524Z,94.50
2023-04-26T11:38:43.812Z,93.90
2023-04-26T11:41:30.005Z,92.70
2023-04-26T11:44:00.200Z,90.00
2023-04-26T11:46:33.489Z,86.50
2023-04-26T11:49:31.677Z,87.80
2023-04-26T11:52:05.897Z,82.30
2023-04-26T11:54:36.273Z,82.40
2023-04-26T11:57:23.738Z,81.70
2023-04-26T11:59:54.622Z,79.10
2023-04-26T12:02:26.257Z,75.90
2023-04-26T12:04:59.384Z,75.70
2023-04-26T12:07:39.254Z,74.20
2023-04-26T12:10:13.586Z,73.80
2023-04-26T12:12:48.474Z,76.60
2023-04-26T12:18:10.286Z,74.80
2023-04-26T12:20:51.303Z,73.40
2023-04-26T12:28:57.178Z,68.10
2023-04-26T12:31:27.613Z,67.70
2023-04-26T12:34:02.601Z,67.20
2023-04-26T12:39:23.775Z,65.10
2023-04-26T12:41:51.432Z,64.50
2023-04-26T12:44:29.482Z,64.40
2023-04-26T12:47:14.577Z,64.90
2023-04-26T12:49:47.681Z,66.30
2023-04-26T12:52:43.941Z,68.40
2023-04-26T12:55:13.822Z,68.60
2023-04-26T12:57:52.443Z,68.90
2023-04-26T13:00:24.168Z,69.90
2023-04-26T13:02:54.805Z,70.20
2023-04-26T13:05:26.510Z,71.10
2023-04-26T13:07:56.944Z,71.80
2023-04-26T13:10:24.154Z,72.30
2023-04-26T13:12:52.125Z,72.10
2023-04-26T13:15:21.859Z,72.80
2023-04-26T13:17:49.200Z,72.60
2023-04-26T13:20:19.802Z,73.80
2023-04-26T13:22:49.418Z,76.90
2023-04-26T13:25:19.611Z,78.20
2023-04-26T13:27:50.928Z,77.70
2023-04-26T13:30:19.354Z,75.10
2023-04-26T13:32:50.448Z,72.70
2023-04-26T13:35:18.197Z,71.80
2023-04-26T13:37:52.352Z,69.40
2023-04-26T13:40:27.014Z,69.80
2023-04-26T13:42:56.203Z,71.80
2023-04-26T13:45:23.652Z,72.50
2023-04-26T13:47:51.835Z,72.10
2023-04-26T13:50:30.331Z,72.80
2023-04-26T13:55:42.602Z,73.30
2023-04-26T13:58:21.583Z,72.40
2023-04-26T14:03:38.988Z,69.00
2023-04-26T14:06:07.071Z,68.30
2023-04-26T14:11:40.143Z,68.10
2023-04-26T14:14:09.808Z,68.20
2023-04-26T14:16:40.603Z,68.70
2023-04-26T14:19:11.642Z,68.80
2023-04-26T14:21:44.503Z,70.40
2023-04-26T14:24:27.385Z,71.90
2023-04-26T14:26:55.980Z,71.70
2023-04-26T14:32:08.078Z,72.70
2023-04-26T14:34:39.351Z,73.50
2023-04-26T14:37:15.293Z,73.00
2023-04-26T14:39:51.220Z,71.90
2023-04-26T14:42:20.675Z,73.40
2023-04-26T14:53:12.938Z,75.30
2023-04-26T14:58:33.578Z,74.50
2023-04-26T15:07:39.024Z,73.20
2023-04-26T15:10:09.951Z,72.80
2023-04-26T15:15:25.105Z,75.40
2023-04-26T15:17:53.062Z,76.20
2023-04-26T15:37:25.945Z,73.00
2023-04-26T15:39:54.863Z,72.70
2023-04-26T15:45:29.840Z,74.10
2023-04-26T15:56:22.263Z,72.70
2023-04-26T15:59:05.216Z,72.40
2023-04-26T16:13:07.782Z,73.70
2023-04-26T16:44:32.360Z,74.10
2023-04-26T16:56:51.623Z,75.30
2023-04-26T16:59:39.135Z,74.90
2023-04-26T17:02:09.404Z,75.80
2023-04-26T17:04:37.620Z,76.40
2023-04-26T17:09:57.714Z,76.70
2023-04-26T17:26:16.950Z,77.50
2023-04-26T17:28:57.052Z,76.80
2023-04-26T17:40:10.130Z,77.40
2023-04-26T17:45:41.284Z,78.90
2023-04-26T17:48:21.881Z,78.60
2023-04-26T17:56:32.510Z,80.90
2023-04-26T17:59:06.429Z,80.40
2023-04-26T18:10:16.056Z,81.80
2023-04-26T18:29:46.805Z,86.70
2023-04-26T18:32:14.556Z,87.40
2023-04-26T18:34:42.781Z,87.80
2023-04-26T18:37:11.153Z,88.10
2023-04-26T18:39:41.846Z,87.90
2023-04-26T18:42:10.433Z,88.00
2023-04-26T18:49:04.713Z,88.90
2023-04-26T18:55:08.653Z,91.00
2023-04-26T18:57:39.282Z,91.20
2023-04-26T19:00:08.793Z,91.60
2023-04-26T19:02:40.335Z,92.00
2023-04-26T19:05:15.559Z,92.30
2023-04-26T19:07:52.122Z,92.70
2023-04-26T19:18:53.476Z,93.80
2023-04-26T19:21:25.211Z,94.40
2023-04-26T19:23:57.168Z,94.50
2023-04-26T19:30:55.927Z,94.50
2023-04-26T19:37:48.144Z,95.00
2023-04-26T19:44:46.042Z,95.70
2023-04-26T19:50:27.763Z,95.70
2023-04-26T19:57:36.152Z,96.00
2023-04-26T20:21:53.376Z,97.30
2023-04-26T20:59:32.609Z,99.90
2023-04-26T21:08:31.932Z,99.90
2023-04-26T21:54:25.193Z,99.90
2023-04-26T22:11:36.942Z,99.90
2023-04-26T22:14:04.834Z,99.90
2023-04-26T22:16:40.118Z,99.90
2023-04-26T22:21:57.230Z,99.90
2023-04-26T22:38:25.069Z,99.90
2023-04-26T22:43:53.140Z,99.90
2023-04-26T22:49:08.815Z,99.90
2023-04-26T22:51:48.220Z,99.90
2023-04-26T22:54:32.036Z,99.90
2023-04-26T22:57:06.444Z,99.90
2023-04-26T23:08:27.258Z,99.90
2023-04-26T23:13:53.433Z,99.90
2023-04-26T23:19:10.879Z,99.90
2023-04-26T23:21:42.360Z,99.90
2023-04-26T23:24:10.915Z,99.90
2023-04-26T23:32:32.818Z,99.90
2023-04-26T23:54:57.982Z,99.90
